KOLV/OLV METAR and TAF weather

Enter ICAO airport designator
Station Type Date Time Source
KOLV METAR 2019/08/23 14:50 UTC NOAA

KOLV 231450Z 00000KT 7SM BKN013 26/23 A3003


Station Type Date Time Source
KOLV Decoded METAR 2019/08/23 14:50 UTC NOAA

Station name not available
Aug 23, 2019 - 10:50 AM EDT / 2019.08.23 1450 UTC
Wind: Calm:0
Visibility: 7 mile(s):0
Sky conditions: mostly cloudy
Temperature: 78 F (26 C)
Dew Point: 73 F (23 C)
Relative Humidity: 83%
Pressure (altimeter): 30.03 in. Hg (1016 hPa)
ob: KOLV 231450Z 00000KT 7SM BKN013 26/23 A3003
cycle: 15

Station Type Date Time Source
KOLV TAF UTC NOAA

Error!

Example: see airport list